Time;durP1;ratioP1;P1;durP2;ratioP2;P2;SDS_P1;SDS_P2;PMS_P1;PMS_P2;Temp;Humidity;BMP_temperature;BMP_pressure;BME280_temperature;BME280_humidity;BME280_pressure;Samples;Min_cycle;Max_cycle;Signal;HPM_P1;HPM_P2
2021/01/01 00:02:28;;;;;;;4.94;3.64;;;;;;;2.53;87.52;98147.72;1991522;81;21687;-83
2021/01/01 00:05:30;;;;;;;4.45;3.00;;;;;;;2.50;87.41;98157.06;1997100;81;20322;-83
2021/01/01 00:08:31;;;;;;;3.81;2.83;;;;;;;2.50;87.50;98157.06;1996661;81;20401;-82
2021/01/01 00:11:34;;;;;;;3.74;3.30;;;;;;;2.48;87.49;98153.63;1996506;81;20319;-83
2021/01/01 00:14:35;;;;;;;3.14;2.61;;;;;;;2.46;87.55;98161.31;1998016;81;20354;-83
2021/01/01 00:17:37;;;;;;;2.79;2.59;;;;;;;2.49;87.78;98163.03;1995613;79;20380;-83
2021/01/01 00:20:42;;;;;;;2.22;2.01;;;;;;;2.47;87.84;98159.63;1995493;81;20334;-82
2021/01/01 00:23:45;;;;;;;2.91;1.76;;;;;;;2.47;87.94;98157.06;1997929;81;20364;-82
2021/01/01 00:26:51;;;;;;;2.65;1.86;;;;;;;2.45;87.89;98157.03;1998753;81;20361;-82
2021/01/01 00:29:52;;;;;;;2.14;1.88;;;;;;;2.45;87.96;98157.03;1998863;81;20348;-82
2021/01/01 00:32:54;;;;;;;1.95;1.64;;;;;;;2.47;87.95;98163.03;2033453;70;22572;-75
2021/01/01 00:35:56;;;;;;;2.03;1.83;;;;;;;2.47;88.06;98165.59;1993178;81;21150;-75
2021/01/01 00:38:57;;;;;;;2.51;2.28;;;;;;;2.46;88.08;98163.88;1993723;81;21223;-75
2021/01/01 00:42:02;;;;;;;2.72;2.53;;;;;;;2.45;88.18;98164.72;1992545;81;20422;-75
2021/01/01 00:45:05;;;;;;;2.65;2.45;;;;;;;2.44;88.32;98157.88;1993021;81;20455;-75
2021/01/01 00:48:08;;;;;;;3.66;2.96;;;;;;;2.45;88.42;98161.31;1995583;78;24519;-75
2021/01/01 00:51:10;;;;;;;2.83;2.53;;;;;;;2.48;88.49;98166.44;1992025;81;21021;-75
2021/01/01 00:54:17;;;;;;;2.85;2.64;;;;;;;2.47;88.63;98173.28;1992339;81;20409;-75
2021/01/01 00:57:19;;;;;;;3.15;2.54;;;;;;;2.47;88.65;98170.72;1991005;81;20386;-75
2021/01/01 01:00:21;;;;;;;2.96;2.45;;;;;;;2.45;88.50;98174.13;1992504;78;21832;-75
2021/01/01 01:03:23;;;;;;;3.94;2.99;;;;;;;2.45;88.62;98172.41;1998006;81;20825;-75
2021/01/01 01:06:26;;;;;;;3.04;2.67;;;;;;;2.42;88.66;98180.06;1998489;81;20344;-75
2021/01/01 01:09:27;;;;;;;3.11;2.83;;;;;;;2.45;88.71;98182.66;1998599;81;20324;-75
2021/01/01 01:12:29;;;;;;;3.65;3.16;;;;;;;2.43;88.62;98187.78;1997624;81;20379;-74
2021/01/01 01:15:31;;;;;;;3.58;3.26;;;;;;;2.46;88.76;98189.50;1995461;78;22334;-75
2021/01/01 01:18:33;;;;;;;3.04;2.74;;;;;;;2.46;88.85;98191.19;1991680;81;21116;-74
2021/01/01 01:21:34;;;;;;;3.90;3.60;;;;;;;2.48;88.96;98194.63;1991745;81;20341;-75
2021/01/01 01:24:36;;;;;;;3.53;3.22;;;;;;;2.45;88.92;98199.72;1995611;81;20641;-75
2021/01/01 01:27:38;;;;;;;3.66;3.09;;;;;;;2.47;89.00;98200.59;1992760;81;20391;-75
2021/01/01 01:30:40;;;;;;;3.59;3.29;;;;;;;2.48;88.96;98205.72;1992027;77;21994;-75
2021/01/01 01:33:42;;;;;;;3.40;3.10;;;;;;;2.49;88.99;98211.72;1997264;81;20328;-75
2021/01/01 01:36:44;;;;;;;3.45;3.15;;;;;;;2.48;89.03;98215.13;1997492;81;20796;-75
2021/01/01 01:39:46;;;;;;;3.63;3.33;;;;;;;2.49;89.14;98219.41;1997664;81;21147;-75
2021/01/01 01:42:48;;;;;;;4.63;4.16;;;;;;;2.50;89.13;98221.13;1998449;81;20324;-75
2021/01/01 01:45:49;;;;;;;4.47;3.92;;;;;;;2.48;89.05;98218.53;1997169;78;28072;-75
2021/01/01 01:48:51;;;;;;;3.03;2.83;;;;;;;2.49;88.98;98217.69;1992931;81;20369;-75
2021/01/01 01:51:54;;;;;;;4.29;3.61;;;;;;;2.48;88.80;98218.53;1993011;81;20812;-75
2021/01/01 01:54:58;;;;;;;4.41;3.83;;;;;;;2.49;88.89;98221.97;1993437;81;20339;-75
2021/01/01 01:58:01;;;;;;;3.64;3.34;;;;;;;2.49;88.76;98230.50;1993005;81;20373;-75
2021/01/01 02:01:03;;;;;;;4.10;3.75;;;;;;;2.49;88.64;98230.50;1993200;78;20357;-75
2021/01/01 02:04:05;;;;;;;4.38;3.97;;;;;;;2.47;88.62;98244.16;1998319;81;20444;-75
2021/01/01 02:07:08;;;;;;;3.99;3.64;;;;;;;2.45;88.70;98248.41;1997576;81;20832;-75
2021/01/01 02:10:09;;;;;;;3.97;3.58;;;;;;;2.47;88.84;98239.03;1998137;81;20870;-74
2021/01/01 02:13:12;;;;;;;4.50;4.05;;;;;;;2.46;88.75;98250.97;1998195;81;20332;-75
2021/01/01 02:16:15;;;;;;;4.10;3.70;;;;;;;2.46;88.69;98258.66;1997732;81;20325;-75
2021/01/01 02:19:19;;;;;;;4.64;4.21;;;;;;;2.46;88.66;98250.97;1992565;81;21210;-75
2021/01/01 02:22:21;;;;;;;4.57;3.76;;;;;;;2.46;88.62;98261.22;1992566;81;20322;-75
2021/01/01 02:25:23;;;;;;;4.47;4.07;;;;;;;2.45;88.59;98267.19;1993923;81;20372;-75
2021/01/01 02:28:24;;;;;;;4.36;3.96;;;;;;;2.43;88.73;98268.88;1992413;81;20349;-75
2021/01/01 02:31:26;;;;;;;4.45;4.05;;;;;;;2.43;88.75;98264.63;1993767;78;21226;-75
2021/01/01 02:34:27;;;;;;;4.69;4.26;;;;;;;2.45;88.73;98268.91;1998643;80;20346;-74
2021/01/01 02:37:29;;;;;;;4.43;4.05;;;;;;;2.42;88.77;98269.72;1998504;81;20741;-75
2021/01/01 02:40:31;;;;;;;4.51;4.11;;;;;;;2.43;88.87;98263.75;1998174;81;21246;-75
2021/01/01 02:43:32;;;;;;;4.61;4.19;;;;;;;2.44;88.87;98260.34;1998096;81;20344;-75
2021/01/01 02:46:34;;;;;;;4.79;4.34;;;;;;;2.46;88.95;98261.22;1994089;78;20783;-74
2021/01/01 02:49:35;;;;;;;6.15;4.79;;;;;;;2.47;88.95;98265.50;1993072;81;20361;-74
2021/01/01 02:52:37;;;;;;;4.97;4.46;;;;;;;2.47;88.92;98264.63;1992809;81;20325;-75
2021/01/01 02:55:40;;;;;;;4.93;4.32;;;;;;;2.48;88.95;98266.34;1992430;81;20373;-74
2021/01/01 02:58:41;;;;;;;4.84;4.36;;;;;;;2.49;88.90;98266.38;1993053;81;20363;-74
2021/01/01 03:01:43;;;;;;;5.11;4.32;;;;;;;2.50;88.83;98267.22;1994927;78;20956;-74
2021/01/01 03:04:44;;;;;;;5.95;5.03;;;;;;;2.50;88.84;98262.97;1999561;81;20425;-74
2021/01/01 03:07:46;;;;;;;5.81;5.00;;;;;;;2.50;88.89;98267.22;1999305;81;20336;-75
2021/01/01 03:10:48;;;;;;;5.90;5.09;;;;;;;2.50;88.92;98272.34;1999890;81;20332;-75
2021/01/01 03:13:49;;;;;;;7.16;5.54;;;;;;;2.49;88.92;98278.31;1999305;81;20367;-75
2021/01/01 03:16:51;;;;;;;6.97;5.85;;;;;;;2.47;88.85;98272.31;1995641;78;20838;-74
2021/01/01 03:19:53;;;;;;;6.81;5.54;;;;;;;2.47;88.93;98280.88;1994379;81;20355;-74
2021/01/01 03:22:54;;;;;;;5.84;5.01;;;;;;;2.47;88.92;98282.56;1993900;81;21088;-75
2021/01/01 03:25:56;;;;;;;6.44;5.36;;;;;;;2.47;88.99;98280.00;1994902;81;20351;-74
2021/01/01 03:28:57;;;;;;;7.53;5.95;;;;;;;2.46;89.08;98289.41;1994002;81;20337;-75
2021/01/01 03:31:59;;;;;;;7.97;6.04;;;;;;;2.47;88.89;98290.25;1998044;78;37567;-74
2021/01/01 03:35:01;;;;;;;7.03;5.61;;;;;;;2.44;88.95;98280.84;1999329;81;20332;-75
2021/01/01 03:38:06;;;;;;;7.45;5.75;;;;;;;2.46;89.01;98285.97;1999404;81;20338;-75
2021/01/01 03:41:08;;;;;;;6.60;5.89;;;;;;;2.44;89.12;98285.97;1998939;81;21780;-75
2021/01/01 03:44:10;;;;;;;6.64;5.55;;;;;;;2.44;89.11;98280.84;1999595;81;21033;-74
2021/01/01 03:47:11;;;;;;;7.31;5.57;;;;;;;2.45;89.14;98284.28;1994774;79;22529;-75
2021/01/01 03:50:13;;;;;;;7.61;5.97;;;;;;;2.46;89.16;98291.09;1993975;81;20355;-74
2021/01/01 03:53:14;;;;;;;7.63;5.96;;;;;;;2.45;89.15;98289.38;1994074;81;20358;-75
2021/01/01 03:56:16;;;;;;;7.21;5.69;;;;;;;2.45;89.06;98292.81;1994158;81;20822;-75
2021/01/01 03:59:18;;;;;;;6.63;5.50;;;;;;;2.44;89.11;98291.09;1994902;81;20353;-75
2021/01/01 04:02:19;;;;;;;7.09;5.60;;;;;;;2.42;89.16;98288.53;1996231;79;22777;-75
2021/01/01 04:05:21;;;;;;;7.81;6.30;;;;;;;2.43;89.17;98292.78;1998421;81;20385;-75
2021/01/01 04:08:23;;;;;;;7.22;6.35;;;;;;;2.44;89.07;98293.66;1999746;81;20419;-75
2021/01/01 04:11:25;;;;;;;7.74;6.57;;;;;;;2.44;89.04;98301.34;1998587;81;20320;-75
2021/01/01 04:14:26;;;;;;;9.29;6.41;;;;;;;2.42;88.86;98303.88;1998724;81;20378;-75
2021/01/01 04:17:28;;;;;;;7.99;6.26;;;;;;;2.44;88.92;98298.78;1994101;79;22895;-75
2021/01/01 04:20:30;;;;;;;7.72;6.28;;;;;;;2.45;88.94;98294.50;1993974;81;20360;-75
2021/01/01 04:23:34;;;;;;;8.77;6.93;;;;;;;2.47;88.95;98303.06;1992618;81;20406;-75
2021/01/01 04:26:35;;;;;;;7.68;6.25;;;;;;;2.47;88.89;98303.06;1993396;81;21056;-75
2021/01/01 04:29:37;;;;;;;8.44;6.65;;;;;;;2.47;88.94;98298.81;1993649;81;20381;-75
2021/01/01 04:32:38;;;;;;;9.63;6.86;;;;;;;2.46;88.95;98297.09;1996707;78;21835;-75
2021/01/01 04:35:40;;;;;;;9.30;6.53;;;;;;;2.45;88.89;98295.38;1998792;81;20555;-75
2021/01/01 04:38:42;;;;;;;8.60;6.86;;;;;;;2.45;89.00;98300.50;1999147;81;20476;-75
2021/01/01 04:41:44;;;;;;;10.43;6.26;;;;;;;2.45;88.98;98297.94;1998572;81;20388;-75
2021/01/01 04:44:45;;;;;;;7.75;6.72;;;;;;;2.46;88.99;98304.78;1998140;81;20358;-75
2021/01/01 04:47:47;;;;;;;9.19;6.99;;;;;;;2.45;89.01;98302.19;1997497;78;22674;-75
2021/01/01 04:50:49;;;;;;;9.04;6.91;;;;;;;2.46;89.05;98309.03;1998330;81;20343;-75
2021/01/01 04:53:55;;;;;;;9.14;7.55;;;;;;;2.45;89.06;98310.75;1998722;81;20370;-75
2021/01/01 04:56:57;;;;;;;10.11;7.68;;;;;;;2.45;89.10;98310.75;1998478;81;20344;-75
2021/01/01 04:59:58;;;;;;;10.39;7.01;;;;;;;2.45;89.20;98310.75;1998507;81;20350;-75
2021/01/01 05:03:00;;;;;;;11.02;6.99;;;;;;;2.45;89.18;98310.75;1992811;78;22651;-74
2021/01/01 05:06:02;;;;;;;9.96;7.29;;;;;;;2.43;89.17;98313.28;1993439;81;20351;-74
2021/01/01 05:09:06;;;;;;;11.64;8.70;;;;;;;2.45;89.21;98315.88;1993720;81;21080;-74
2021/01/01 05:12:08;;;;;;;10.36;7.56;;;;;;;2.44;89.19;98314.16;1994380;81;20355;-74
2021/01/01 05:15:11;;;;;;;11.99;7.70;;;;;;;2.44;89.09;98311.59;1996019;81;20904;-75
2021/01/01 05:18:30;;;;;;;10.04;7.46;;;;;;;2.43;89.17;98315.84;1999881;78;21285;-74
2021/01/01 05:21:32;;;;;;;11.68;7.72;;;;;;;2.42;89.05;98321.81;2000524;81;20320;-74
2021/01/01 05:24:38;;;;;;;10.10;7.56;;;;;;;2.45;89.14;98325.25;2001289;81;20321;-75
2021/01/01 05:27:42;;;;;;;10.79;7.57;;;;;;;2.45;89.07;98331.22;2000577;81;20356;-75
2021/01/01 05:30:44;;;;;;;11.05;7.95;;;;;;;2.45;89.16;98333.78;1999098;79;21447;-75
2021/01/01 05:33:53;;;;;;;9.95;7.39;;;;;;;2.44;89.14;98324.41;1995685;81;20332;-75
2021/01/01 05:36:55;;;;;;;10.44;7.46;;;;;;;2.43;89.15;98331.22;1995660;81;20817;-74
2021/01/01 05:40:06;;;;;;;10.99;7.86;;;;;;;2.45;89.20;98332.94;1995501;81;20351;-75
2021/01/01 05:43:22;;;;;;;9.50;7.41;;;;;;;2.45;89.20;98345.75;1995061;81;20386;-74
2021/01/01 05:46:24;;;;;;;11.19;7.53;;;;;;;2.46;89.36;98339.78;1996103;79;25089;-74
2021/01/01 05:49:35;;;;;;;13.43;8.30;;;;;;;2.47;89.35;98342.34;2003532;80;20329;-75
2021/01/01 05:52:37;;;;;;;11.18;7.45;;;;;;;2.49;89.34;98347.50;2000278;81;20321;-74
2021/01/01 05:55:40;;;;;;;10.84;7.56;;;;;;;2.49;89.37;98343.22;2001183;81;20348;-74
2021/01/01 05:58:41;;;;;;;11.89;7.96;;;;;;;2.49;89.40;98356.03;2000393;81;20345;-74
2021/01/01 06:01:44;;;;;;;11.04;8.32;;;;;;;2.49;89.46;98357.75;1997790;78;20967;-74
2021/01/01 06:04:46;;;;;;;11.91;7.69;;;;;;;2.50;89.40;98356.91;1995728;81;20333;-74
2021/01/01 06:07:50;;;;;;;11.18;8.31;;;;;;;2.50;89.34;98362.88;1995220;81;20322;-75
2021/01/01 06:10:59;;;;;;;12.07;8.16;;;;;;;2.50;89.37;98362.88;1995034;81;20345;-75
2021/01/01 06:14:06;;;;;;;9.95;7.80;;;;;;;2.50;89.22;98369.72;1994037;81;20355;-74
2021/01/01 06:17:10;;;;;;;14.16;8.63;;;;;;;2.50;89.23;98369.72;1994923;78;25852;-74
2021/01/01 06:20:17;;;;;;;10.02;7.38;;;;;;;2.49;89.26;98380.78;1993755;81;20999;-74
2021/01/01 06:23:31;;;;;;;10.90;7.46;;;;;;;2.51;89.16;98379.09;1994423;81;20365;-74
2021/01/01 06:26:33;;;;;;;14.07;8.70;;;;;;;2.52;89.18;98386.84;1993323;81;20369;-74
2021/01/01 06:29:36;;;;;;;13.23;7.90;;;;;;;2.54;89.13;98389.41;1993995;81;20762;-74
2021/01/01 06:32:38;;;;;;;12.88;7.75;;;;;;;2.56;89.03;98392.84;1997026;78;22381;-74
2021/01/01 06:35:46;;;;;;;12.24;8.32;;;;;;;2.53;88.92;98397.94;1998615;81;20359;-74
2021/01/01 06:38:47;;;;;;;11.90;7.96;;;;;;;2.55;88.88;98397.13;1998900;81;20340;-74
2021/01/01 06:41:49;;;;;;;9.74;7.63;;;;;;;2.54;88.75;98400.53;1999543;81;20387;-74
2021/01/01 06:44:51;;;;;;;10.82;8.00;;;;;;;2.53;88.82;98406.50;1998905;81;20363;-76
2021/01/01 06:47:52;;;;;;;11.98;8.60;;;;;;;2.53;88.72;98403.94;1993674;78;21640;-75
2021/01/01 06:50:54;;;;;;;11.18;8.02;;;;;;;2.53;88.75;98409.06;1993511;81;20330;-75
2021/01/01 06:54:15;;;;;;;10.27;7.70;;;;;;;2.53;88.62;98419.31;1994525;81;20402;-75
2021/01/01 06:57:16;;;;;;;13.96;8.61;;;;;;;2.52;88.57;98414.16;1994093;81;20345;-76
2021/01/01 07:00:47;;;;;;;11.43;7.97;;;;;;;2.53;88.69;98426.13;1992705;79;21687;-76
2021/01/01 07:03:52;;;;;;;10.90;7.59;;;;;;;2.54;88.64;98432.97;1998623;81;20463;-76
2021/01/01 07:06:54;;;;;;;10.27;7.88;;;;;;;2.54;88.50;98431.28;1999612;81;20774;-76
2021/01/01 07:09:55;;;;;;;11.59;8.50;;;;;;;2.53;88.30;98436.38;1998772;81;20329;-75
2021/01/01 07:13:19;;;;;;;12.09;8.20;;;;;;;2.54;88.37;98432.97;1999018;81;20807;-74
2021/01/01 07:16:22;;;;;;;11.89;8.02;;;;;;;2.55;88.41;98438.13;1997206;79;27983;-74
2021/01/01 07:19:24;;;;;;;11.01;7.32;;;;;;;2.56;88.23;98438.97;1993469;81;20382;-74
2021/01/01 07:22:26;;;;;;;14.49;8.20;;;;;;;2.55;88.23;98444.94;1996530;81;20333;-74
2021/01/01 07:25:38;;;;;;;11.09;7.69;;;;;;;2.56;88.31;98449.22;1993511;81;20351;-75
2021/01/01 07:28:42;;;;;;;13.60;8.51;;;;;;;2.55;88.26;98453.47;1993756;81;20391;-75
2021/01/01 07:31:46;;;;;;;11.63;7.94;;;;;;;2.51;88.35;98459.38;1996986;78;32211;-73
2021/01/01 07:34:51;;;;;;;11.88;8.27;;;;;;;2.54;88.26;98459.44;1997550;81;20329;-75
2021/01/01 07:37:54;;;;;;;13.10;8.43;;;;;;;2.55;88.25;98458.59;1998750;81;20877;-76
2021/01/01 07:40:55;;;;;;;11.46;8.40;;;;;;;2.56;88.18;98462.88;1998893;81;21085;-77
2021/01/01 07:43:57;;;;;;;11.74;8.26;;;;;;;2.57;88.05;98464.63;1999009;81;20452;-77
2021/01/01 07:46:59;;;;;;;10.93;7.95;;;;;;;2.58;87.97;98468.03;1994792;79;23429;-78
2021/01/01 07:50:01;;;;;;;11.18;8.00;;;;;;;2.58;87.90;98463.75;1993925;81;20495;-77
2021/01/01 07:53:11;;;;;;;14.57;8.71;;;;;;;2.57;87.95;98472.28;1993459;81;20329;-77
2021/01/01 07:56:12;;;;;;;;;;;;;;;2.57;87.90;98471.44;1994522;81;20341;-76
2021/01/01 07:59:14;;;;;;;13.32;7.62;;;;;;;2.59;88.00;98473.16;1993298;81;20123;-75
2021/01/01 08:02:15;;;;;;;11.93;7.94;;;;;;;2.60;87.89;98471.47;1996120;78;21929;-75
2021/01/01 08:05:17;;;;;;;12.89;8.01;;;;;;;2.62;87.91;98477.47;1998943;81;20463;-76
2021/01/01 08:08:23;;;;;;;14.14;8.80;;;;;;;2.62;87.84;98483.47;1998741;81;20352;-72
2021/01/01 08:11:24;;;;;;;14.90;8.77;;;;;;;2.62;87.77;98478.34;2002223;80;20332;-72
2021/01/01 08:14:26;;;;;;;12.64;8.48;;;;;;;2.62;87.59;98483.47;1999025;81;20344;-72
2021/01/01 08:17:44;;;;;;;11.01;8.41;;;;;;;2.58;87.46;98491.97;1995938;79;24154;-72
2021/01/01 08:20:48;;;;;;;12.68;8.85;;;;;;;2.56;87.58;98490.22;1992830;81;20337;-72
2021/01/01 08:24:06;;;;;;;12.49;8.20;;;;;;;2.57;87.78;98490.22;1993102;81;20397;-72
2021/01/01 08:27:08;;;;;;;13.14;8.39;;;;;;;2.59;87.62;98498.78;1993636;81;20344;-72
2021/01/01 08:30:11;;;;;;;13.91;8.76;;;;;;;2.60;87.54;98497.09;1993404;81;20340;-73
2021/01/01 08:33:13;;;;;;;12.25;8.75;;;;;;;2.59;87.61;98508.19;1997650;79;21126;-72
2021/01/01 08:36:15;;;;;;;11.91;7.64;;;;;;;2.59;87.54;98503.06;1998200;81;21153;-74
2021/01/01 08:39:17;;;;;;;12.38;8.18;;;;;;;2.57;87.49;98502.19;1998159;81;20350;-73
2021/01/01 08:42:22;;;;;;;13.60;9.14;;;;;;;2.59;87.54;98505.63;1997986;81;20316;-74
2021/01/01 08:45:31;;;;;;;13.41;9.10;;;;;;;2.59;87.57;98506.47;1997719;81;20369;-73
2021/01/01 08:48:32;;;;;;;15.10;9.41;;;;;;;2.58;87.49;98509.03;1993098;81;20321;-73
2021/01/01 08:51:34;;;;;;;12.91;8.88;;;;;;;2.59;87.49;98513.31;1994094;81;20237;-73
2021/01/01 08:54:35;;;;;;;16.19;8.77;;;;;;;2.62;87.53;98521.03;1994181;81;20406;-73
2021/01/01 08:57:37;;;;;;;12.24;8.64;;;;;;;2.64;87.52;98520.22;1994324;81;20329;-73
2021/01/01 09:00:41;;;;;;;13.95;9.23;;;;;;;2.61;87.46;98532.13;1994961;81;20379;-73
2021/01/01 09:03:43;;;;;;;17.01;9.63;;;;;;;2.60;87.45;98530.41;1994984;81;20837;-73
2021/01/01 09:07:04;;;;;;;12.52;8.57;;;;;;;2.63;87.47;98527.88;1993751;81;20377;-73
2021/01/01 09:10:17;;;;;;;12.84;8.56;;;;;;;2.62;87.42;98534.72;1994180;81;20888;-73
2021/01/01 09:13:24;;;;;;;14.14;8.90;;;;;;;2.65;87.52;98536.44;1994047;81;20461;-73
2021/01/01 09:16:26;;;;;;;13.65;8.35;;;;;;;2.66;87.48;98544.16;1994470;81;20351;-73
2021/01/01 09:19:27;;;;;;;15.05;8.46;;;;;;;2.67;87.41;98545.88;1993671;81;20355;-73
2021/01/01 09:22:33;;;;;;;13.32;9.00;;;;;;;2.67;87.43;98542.44;1993729;81;20803;-74
2021/01/01 09:25:36;;;;;;;14.69;8.79;;;;;;;2.71;87.45;98545.09;1994018;81;20349;-74
2021/01/01 09:28:38;;;;;;;14.48;8.93;;;;;;;2.73;87.30;98548.53;1992437;81;20355;-73
2021/01/01 09:31:45;;;;;;;14.95;9.32;;;;;;;2.74;87.34;98554.53;1994387;81;20732;-73
2021/01/01 09:34:46;;;;;;;13.21;8.74;;;;;;;2.74;87.33;98562.22;1993801;81;21094;-73
2021/01/01 09:37:53;;;;;;;13.63;8.90;;;;;;;2.74;87.25;98557.09;1993745;81;20374;-73
2021/01/01 09:40:54;;;;;;;13.69;8.84;;;;;;;2.75;87.20;98563.94;1994187;81;20329;-73
2021/01/01 09:43:56;;;;;;;14.11;9.23;;;;;;;2.75;87.30;98569.06;1994265;81;20318;-73
2021/01/01 09:46:58;;;;;;;16.39;8.64;;;;;;;2.80;87.46;98571.66;1993818;81;20325;-74
2021/01/01 09:50:00;;;;;;;16.05;9.44;;;;;;;2.82;87.39;98568.28;1994659;81;21747;-74
2021/01/01 09:53:02;;;;;;;15.05;9.91;;;;;;;2.87;87.45;98569.22;1994174;81;20365;-75
2021/01/01 09:56:04;;;;;;;16.30;9.36;;;;;;;2.91;87.37;98573.53;1994717;81;20873;-73
2021/01/01 09:59:06;;;;;;;15.61;9.79;;;;;;;2.95;87.48;98575.28;1994141;81;20325;-74
2021/01/01 10:02:08;;;;;;;17.06;9.56;;;;;;;2.98;87.32;98571.91;1993629;81;20455;-73
2021/01/01 10:05:11;;;;;;;15.30;8.69;;;;;;;2.98;87.24;98574.47;1993971;81;20359;-73
2021/01/01 10:08:14;;;;;;;16.17;9.73;;;;;;;3.03;87.36;98571.13;1993670;81;20481;-74
2021/01/01 10:11:16;;;;;;;16.01;9.25;;;;;;;3.07;87.27;98572.03;1994144;81;20333;-76
2021/01/01 10:14:18;;;;;;;14.86;9.59;;;;;;;3.12;87.23;98577.22;1993565;81;20367;-74
2021/01/01 10:17:23;;;;;;;16.44;9.13;;;;;;;3.14;87.17;98573.81;1994149;81;20329;-74
2021/01/01 10:20:24;;;;;;;14.32;9.90;;;;;;;3.19;86.87;98574.72;1993981;81;20961;-74
2021/01/01 10:23:26;;;;;;;15.18;9.44;;;;;;;3.27;86.82;98578.25;1993797;81;20367;-75
2021/01/01 10:26:27;;;;;;;15.27;9.39;;;;;;;3.33;86.80;98577.44;1993695;81;20334;-75
2021/01/01 10:29:29;;;;;;;15.85;9.68;;;;;;;3.38;86.57;98574.94;1994576;81;20321;-75
2021/01/01 10:32:31;;;;;;;16.27;9.60;;;;;;;3.42;86.11;98575.00;1993637;81;20364;-76
2021/01/01 10:35:33;;;;;;;16.31;9.69;;;;;;;3.49;86.13;98581.06;1992402;81;20446;-76
2021/01/01 10:38:34;;;;;;;16.81;10.25;;;;;;;3.55;85.89;98574.25;1992431;81;20334;-76
2021/01/01 10:41:37;;;;;;;13.82;9.70;;;;;;;3.57;85.55;98569.16;1993255;81;20321;-76
2021/01/01 10:44:38;;;;;;;14.93;9.82;;;;;;;3.61;85.39;98571.78;1992511;81;20329;-76
2021/01/01 10:47:40;;;;;;;14.32;9.82;;;;;;;3.62;84.88;98575.22;1992322;81;20891;-76
2021/01/01 10:50:42;;;;;;;16.52;9.85;;;;;;;3.69;84.98;98571.84;1992296;81;20369;-76
2021/01/01 10:53:43;;;;;;;13.95;9.50;;;;;;;3.72;84.79;98576.13;1991591;81;20341;-76
2021/01/01 10:56:46;;;;;;;14.77;9.41;;;;;;;3.75;84.75;98576.16;1992244;81;20363;-76
2021/01/01 11:00:08;;;;;;;14.73;9.15;;;;;;;3.77;84.60;98582.16;1993556;81;20391;-76
2021/01/01 11:03:10;;;;;;;13.04;9.41;;;;;;;3.77;84.52;98585.63;1993576;81;20938;-76
2021/01/01 11:06:11;;;;;;;18.67;9.76;;;;;;;3.73;84.33;98580.44;1994330;81;20367;-76
2021/01/01 11:10:49;;;;;;;12.64;8.06;;;;;;;3.77;84.24;98577.94;2066295;77;20190;-76
2021/01/01 12:24:21;;;;;;;13.61;9.07;;;;;;;3.90;83.04;98555.75;2051429;78;21182;-74
2021/01/01 12:27:30;;;;;;;14.91;9.14;;;;;;;3.86;82.96;98554.88;2050999;78;20585;-74
2021/01/01 12:30:32;;;;;;;15.08;9.80;;;;;;;3.86;83.05;98554.88;2052267;78;20325;-74
2021/01/01 12:33:34;;;;;;;13.13;8.93;;;;;;;3.89;83.12;98554.03;2051541;78;20195;-74
2021/01/01 12:36:36;;;;;;;13.57;8.66;;;;;;;3.89;83.10;98557.47;2052121;78;20321;-74
2021/01/01 12:39:38;;;;;;;13.24;8.70;;;;;;;3.86;82.82;98562.59;2051492;78;20329;-74
2021/01/01 12:42:40;;;;;;;12.82;8.79;;;;;;;3.82;82.79;98563.41;2052026;78;20552;-74
2021/01/01 12:45:42;;;;;;;13.69;8.57;;;;;;;3.79;83.00;98560.81;2051416;78;20332;-74
2021/01/01 12:48:55;;;;;;;13.84;9.02;;;;;;;3.75;82.97;98563.31;2051056;78;20688;-74
2021/01/01 12:51:58;;;;;;;13.70;9.00;;;;;;;3.74;83.34;98564.19;2051400;78;20338;-73
2021/01/01 12:55:00;;;;;;;12.82;8.36;;;;;;;3.73;83.06;98565.03;2050808;78;20337;-74
2021/01/01 12:58:05;;;;;;;13.31;9.00;;;;;;;3.70;82.73;98563.28;2051408;78;20531;-74
2021/01/01 13:01:06;;;;;;;14.16;8.54;;;;;;;3.67;82.82;98559.84;2051785;78;20344;-74
2021/01/01 13:04:08;;;;;;;13.69;9.15;;;;;;;3.68;83.23;98562.41;2051687;78;20812;-73
2021/01/01 13:07:10;;;;;;;13.75;8.84;;;;;;;3.67;83.40;98565.84;2051270;78;20317;-74
2021/01/01 13:10:11;;;;;;;13.13;9.01;;;;;;;3.66;83.57;98569.25;2051255;78;20355;-73
2021/01/01 13:13:22;;;;;;;15.35;9.19;;;;;;;3.67;83.76;98573.53;2051622;78;21230;-73
2021/01/01 13:16:27;;;;;;;15.30;8.93;;;;;;;3.68;83.59;98572.69;2051560;78;20360;-75
2021/01/01 13:19:29;;;;;;;12.90;8.57;;;;;;;3.68;83.84;98567.56;2051748;78;20360;-74
2021/01/01 13:22:30;;;;;;;12.82;8.00;;;;;;;3.61;83.54;98568.34;2051293;78;20317;-74
2021/01/01 13:25:32;;;;;;;14.85;8.51;;;;;;;3.64;83.66;98570.94;2051453;78;20337;-74
2021/01/01 13:28:34;;;;;;;13.41;9.31;;;;;;;3.67;83.85;98570.97;2050751;78;20437;-75
2021/01/01 13:31:38;;;;;;;13.32;8.38;;;;;;;3.70;83.87;98577.84;2051189;78;20329;-74
2021/01/01 13:34:40;;;;;;;13.93;9.21;;;;;;;3.73;84.10;98576.16;2051436;78;20334;-75
2021/01/01 13:37:41;;;;;;;12.93;9.04;;;;;;;3.73;84.06;98583.84;2051118;78;20389;-76
2021/01/01 13:40:43;;;;;;;11.85;8.65;;;;;;;3.71;83.96;98582.13;2051941;78;20432;-75
2021/01/01 13:43:46;;;;;;;13.56;9.23;;;;;;;3.65;83.67;98580.38;2051136;78;20372;-74
2021/01/01 13:46:47;;;;;;;13.66;9.07;;;;;;;3.60;83.63;98592.31;2050971;78;20382;-76
2021/01/01 13:49:49;;;;;;;12.76;8.25;;;;;;;3.55;83.67;98591.38;2050718;78;20338;-73
2021/01/01 13:52:50;;;;;;;14.73;8.99;;;;;;;3.55;83.80;98601.63;2050732;78;20355;-74
2021/01/01 13:55:52;;;;;;;13.23;9.11;;;;;;;3.56;84.11;98601.66;2051295;78;20335;-74
2021/01/01 13:58:54;;;;;;;13.74;8.94;;;;;;;3.57;84.02;98605.06;2051218;78;20446;-74
2021/01/01 14:01:56;;;;;;;14.14;9.64;;;;;;;3.56;84.00;98603.34;2051446;78;20365;-74
2021/01/01 14:04:58;;;;;;;12.36;8.48;;;;;;;3.54;84.16;98608.47;2051072;78;20342;-73
2021/01/01 14:08:00;;;;;;;15.44;8.76;;;;;;;3.55;84.37;98609.34;2051348;78;20346;-73
2021/01/01 14:11:02;;;;;;;15.01;8.14;;;;;;;3.56;84.46;98609.34;2050745;78;20447;-73
2021/01/01 14:14:04;;;;;;;12.88;8.64;;;;;;;3.55;84.43;98606.78;2051028;78;20321;-73
2021/01/01 14:17:06;;;;;;;14.38;9.13;;;;;;;3.58;84.50;98606.78;2051110;78;20828;-74
2021/01/01 14:20:08;;;;;;;13.39;9.25;;;;;;;3.58;84.58;98615.34;2051268;78;20357;-74
2021/01/01 14:23:10;;;;;;;13.74;8.89;;;;;;;3.61;84.80;98610.28;2051412;78;20501;-73
2021/01/01 14:26:14;;;;;;;15.43;9.13;;;;;;;3.63;84.42;98611.16;2051047;78;20949;-73
2021/01/01 14:29:16;;;;;;;13.86;8.71;;;;;;;3.63;84.49;98613.72;2051254;78;20813;-73
2021/01/01 14:32:21;;;;;;;13.13;8.61;;;;;;;3.63;84.37;98621.41;2051226;78;20940;-73
2021/01/01 14:35:23;;;;;;;13.06;8.38;;;;;;;3.68;84.46;98611.19;2050944;78;20841;-74
2021/01/01 14:38:24;;;;;;;10.89;7.97;;;;;;;3.71;84.29;98620.63;2050541;78;20321;-73
2021/01/01 14:41:26;;;;;;;12.46;8.21;;;;;;;3.70;83.74;98622.34;2051072;78;20491;-74
2021/01/01 14:44:27;;;;;;;12.90;7.81;;;;;;;3.70;83.66;98616.34;2051111;78;21109;-73
2021/01/01 14:47:33;;;;;;;12.94;8.40;;;;;;;3.69;83.70;98610.34;2050836;78;20325;-74
2021/01/01 14:50:40;;;;;;;13.61;9.29;;;;;;;3.68;83.69;98618.91;2050411;78;20706;-74
2021/01/01 14:53:49;;;;;;;8.96;7.25;;;;;;;3.68;83.75;98616.31;2051519;78;20366;-73
2021/01/01 14:56:51;;;;;;;10.10;7.41;;;;;;;3.71;83.79;98618.06;2050694;78;20329;-76
2021/01/01 14:59:53;;;;;;;10.15;7.21;;;;;;;3.71;83.88;98618.91;2051176;78;20338;-74
2021/01/01 15:02:54;;;;;;;10.50;7.00;;;;;;;3.66;83.41;98627.44;2050269;78;20336;-73
2021/01/01 15:05:56;;;;;;;10.49;6.91;;;;;;;3.63;83.52;98631.69;2050479;78;20374;-74
2021/01/01 15:08:58;;;;;;;10.20;6.93;;;;;;;3.62;83.40;98627.41;2051475;78;21167;-74
2021/01/01 15:12:01;;;;;;;8.79;6.46;;;;;;;3.57;83.27;98628.19;2050478;78;20335;-73
2021/01/01 15:15:03;;;;;;;9.20;6.80;;;;;;;3.55;83.42;98635.84;2057751;78;20375;-81
2021/01/01 15:18:04;;;;;;;9.90;6.68;;;;;;;3.47;83.40;98640.06;2063853;78;20301;-81
2021/01/01 15:21:07;;;;;;;9.09;6.64;;;;;;;3.41;83.76;98637.44;2065188;78;20414;-81
2021/01/01 15:24:11;;;;;;;9.69;7.13;;;;;;;3.39;84.14;98640.78;2065981;78;20314;-81
2021/01/01 15:27:13;;;;;;;10.88;7.44;;;;;;;3.36;84.50;98641.63;2063695;78;20301;-81
2021/01/01 15:30:15;;;;;;;9.20;7.31;;;;;;;3.33;84.49;98654.41;2062512;78;20308;-81
2021/01/01 15:33:18;;;;;;;11.07;7.14;;;;;;;3.26;84.45;98643.22;2063181;78;20313;-81
2021/01/01 15:36:21;;;;;;;10.61;6.90;;;;;;;3.24;84.53;98638.94;2063358;78;20352;-81
2021/01/01 15:39:23;;;;;;;10.49;6.89;;;;;;;3.21;84.70;98647.41;2064078;78;20313;-81